sensor_id;sensor_type;location;lat;lon;timestamp;P1;P2;P0
32503;PMS5003;18953;45.930;13.640;2022-11-20T00:00:42;2;1;
32503;PMS5003;18953;45.930;13.640;2022-11-20T00:05:59;0;0;
32503;PMS5003;18953;45.930;13.640;2022-11-20T00:11:16;0;0;
32503;PMS5003;18953;45.930;13.640;2022-11-20T00:16:32;1;1;
32503;PMS5003;18953;45.930;13.640;2022-11-20T00:21:48;1;1;
32503;PMS5003;18953;45.930;13.640;2022-11-20T00:27:04;0;0;
32503;PMS5003;18953;45.930;13.640;2022-11-20T00:32:21;0;0;
32503;PMS5003;18953;45.930;13.640;2022-11-20T00:37:37;0;0;
32503;PMS5003;18953;45.930;13.640;2022-11-20T00:42:54;0;0;
32503;PMS5003;18953;45.930;13.640;2022-11-20T00:48:15;1;0;
32503;PMS5003;18953;45.930;13.640;2022-11-20T00:53:32;0;0;
32503;PMS5003;18953;45.930;13.640;2022-11-20T00:58:49;0;0;
32503;PMS5003;18953;45.930;13.640;2022-11-20T01:04:06;0;0;
32503;PMS5003;18953;45.930;13.640;2022-11-20T01:09:22;0;0;
32503;PMS5003;18953;45.930;13.640;2022-11-20T01:14:38;0;0;
32503;PMS5003;18953;45.930;13.640;2022-11-20T01:19:55;0;0;
32503;PMS5003;18953;45.930;13.640;2022-11-20T01:25:11;0;0;
32503;PMS5003;18953;45.930;13.640;2022-11-20T01:30:28;0;0;
32503;PMS5003;18953;45.930;13.640;2022-11-20T01:35:44;0;0;
32503;PMS5003;18953;45.930;13.640;2022-11-20T01:41:01;0;0;
32503;PMS5003;18953;45.930;13.640;2022-11-20T01:46:18;0;0;
32503;PMS5003;18953;45.930;13.640;2022-11-20T01:51:35;0;0;
32503;PMS5003;18953;45.930;13.640;2022-11-20T01:56:51;0;0;
32503;PMS5003;18953;45.930;13.640;2022-11-20T02:02:07;0;0;
32503;PMS5003;18953;45.930;13.640;2022-11-20T02:07:23;0;0;
32503;PMS5003;18953;45.930;13.640;2022-11-20T02:12:40;0;0;
32503;PMS5003;18953;45.930;13.640;2022-11-20T02:17:56;0;0;
32503;PMS5003;18953;45.930;13.640;2022-11-20T02:23:15;0;0;
32503;PMS5003;18953;45.930;13.640;2022-11-20T02:28:29;0;0;
32503;PMS5003;18953;45.930;13.640;2022-11-20T02:33:46;0;0;
32503;PMS5003;18953;45.930;13.640;2022-11-20T02:39:03;0;0;
32503;PMS5003;18953;45.930;13.640;2022-11-20T02:44:19;0;0;
32503;PMS5003;18953;45.930;13.640;2022-11-20T02:49:36;0;0;
32503;PMS5003;18953;45.930;13.640;2022-11-20T02:54:52;0;0;
32503;PMS5003;18953;45.930;13.640;2022-11-20T03:00:09;0;0;
32503;PMS5003;18953;45.930;13.640;2022-11-20T03:05:26;0;0;
32503;PMS5003;18953;45.930;13.640;2022-11-20T03:10:42;0;0;
32503;PMS5003;18953;45.930;13.640;2022-11-20T03:16:04;0;0;
32503;PMS5003;18953;45.930;13.640;2022-11-20T03:21:15;0;0;
32503;PMS5003;18953;45.930;13.640;2022-11-20T03:26:31;0;0;
32503;PMS5003;18953;45.930;13.640;2022-11-20T03:31:48;0;0;
32503;PMS5003;18953;45.930;13.640;2022-11-20T03:37:04;0;0;
32503;PMS5003;18953;45.930;13.640;2022-11-20T03:42:21;0;0;
32503;PMS5003;18953;45.930;13.640;2022-11-20T03:47:37;0;0;
32503;PMS5003;18953;45.930;13.640;2022-11-20T03:52:54;0;0;
32503;PMS5003;18953;45.930;13.640;2022-11-20T03:59:01;0;0;
32503;PMS5003;18953;45.930;13.640;2022-11-20T04:04:18;0;0;
32503;PMS5003;18953;45.930;13.640;2022-11-20T04:09:34;0;0;
32503;PMS5003;18953;45.930;13.640;2022-11-20T04:14:51;0;0;
32503;PMS5003;18953;45.930;13.640;2022-11-20T04:20:08;0;0;
32503;PMS5003;18953;45.930;13.640;2022-11-20T04:25:24;0;0;
32503;PMS5003;18953;45.930;13.640;2022-11-20T04:30:40;0;0;
32503;PMS5003;18953;45.930;13.640;2022-11-20T04:35:59;0;0;
32503;PMS5003;18953;45.930;13.640;2022-11-20T04:41:15;0;0;
32503;PMS5003;18953;45.930;13.640;2022-11-20T04:46:30;0;0;
32503;PMS5003;18953;45.930;13.640;2022-11-20T04:51:47;0;0;
32503;PMS5003;18953;45.930;13.640;2022-11-20T04:57:04;1;0;
32503;PMS5003;18953;45.930;13.640;2022-11-20T05:02:25;0;0;
32503;PMS5003;18953;45.930;13.640;2022-11-20T05:07:42;1;0;
32503;PMS5003;18953;45.930;13.640;2022-11-20T05:12:58;0;0;
32503;PMS5003;18953;45.930;13.640;2022-11-20T05:18:14;1;1;
32503;PMS5003;18953;45.930;13.640;2022-11-20T05:23:31;2;1;
32503;PMS5003;18953;45.930;13.640;2022-11-20T05:28:48;1;1;
32503;PMS5003;18953;45.930;13.640;2022-11-20T05:34:09;2;1;
32503;PMS5003;18953;45.930;13.640;2022-11-20T05:39:30;2;1;
32503;PMS5003;18953;45.930;13.640;2022-11-20T05:44:52;2;2;
32503;PMS5003;18953;45.930;13.640;2022-11-20T05:50:08;2;2;
32503;PMS5003;18953;45.930;13.640;2022-11-20T05:55:25;1;1;
32503;PMS5003;18953;45.930;13.640;2022-11-20T06:00:41;2;2;
32503;PMS5003;18953;45.930;13.640;2022-11-20T06:05:58;2;1;
32503;PMS5003;18953;45.930;13.640;2022-11-20T06:11:14;2;2;
32503;PMS5003;18953;45.930;13.640;2022-11-20T06:16:35;2;2;
32503;PMS5003;18953;45.930;13.640;2022-11-20T06:21:58;3;2;
32503;PMS5003;18953;45.930;13.640;2022-11-20T06:27:09;3;2;
32503;PMS5003;18953;45.930;13.640;2022-11-20T06:32:25;3;3;
32503;PMS5003;18953;45.930;13.640;2022-11-20T06:37:42;2;2;
32503;PMS5003;18953;45.930;13.640;2022-11-20T06:42:58;2;2;
32503;PMS5003;18953;45.930;13.640;2022-11-20T06:48:20;3;2;
32503;PMS5003;18953;45.930;13.640;2022-11-20T06:53:31;3;3;
32503;PMS5003;18953;45.930;13.640;2022-11-20T06:58:52;4;4;
32503;PMS5003;18953;45.930;13.640;2022-11-20T07:04:09;6;5;
32503;PMS5003;18953;45.930;13.640;2022-11-20T07:09:25;6;6;
32503;PMS5003;18953;45.930;13.640;2022-11-20T07:14:42;5;5;
32503;PMS5003;18953;45.930;13.640;2022-11-20T07:19:59;9;7;
32503;PMS5003;18953;45.930;13.640;2022-11-20T07:25:16;5;4;
32503;PMS5003;18953;45.930;13.640;2022-11-20T07:30:32;6;6;
32503;PMS5003;18953;45.930;13.640;2022-11-20T07:35:54;7;7;
32503;PMS5003;18953;45.930;13.640;2022-11-20T07:41:16;10;10;
32503;PMS5003;18953;45.930;13.640;2022-11-20T07:46:27;10;10;
32503;PMS5003;18953;45.930;13.640;2022-11-20T07:51:43;12;11;
32503;PMS5003;18953;45.930;13.640;2022-11-20T07:57:01;10;10;
32503;PMS5003;18953;45.930;13.640;2022-11-20T08:02:18;12;11;
32503;PMS5003;18953;45.930;13.640;2022-11-20T08:07:35;10;10;
32503;PMS5003;18953;45.930;13.640;2022-11-20T08:12:51;10;9;
32503;PMS5003;18953;45.930;13.640;2022-11-20T08:18:08;10;10;
32503;PMS5003;18953;45.930;13.640;2022-11-20T08:23:24;12;11;
32503;PMS5003;18953;45.930;13.640;2022-11-20T08:28:40;12;10;
32503;PMS5003;18953;45.930;13.640;2022-11-20T08:33:57;14;11;
32503;PMS5003;18953;45.930;13.640;2022-11-20T08:39:13;8;8;
32503;PMS5003;18953;45.930;13.640;2022-11-20T08:44:29;9;9;
32503;PMS5003;18953;45.930;13.640;2022-11-20T08:49:46;8;7;
32503;PMS5003;18953;45.930;13.640;2022-11-20T08:55:03;5;5;
32503;PMS5003;18953;45.930;13.640;2022-11-20T09:00:21;7;6;
32503;PMS5003;18953;45.930;13.640;2022-11-20T09:05:41;6;6;
32503;PMS5003;18953;45.930;13.640;2022-11-20T09:10:58;6;5;
32503;PMS5003;18953;45.930;13.640;2022-11-20T09:16:14;5;4;
32503;PMS5003;18953;45.930;13.640;2022-11-20T09:21:30;3;3;
32503;PMS5003;18953;45.930;13.640;2022-11-20T09:26:47;3;2;
32503;PMS5003;18953;45.930;13.640;2022-11-20T09:32:03;3;2;
32503;PMS5003;18953;45.930;13.640;2022-11-20T09:37:20;3;2;
32503;PMS5003;18953;45.930;13.640;2022-11-20T09:42:37;4;4;
32503;PMS5003;18953;45.930;13.640;2022-11-20T09:47:57;2;2;
32503;PMS5003;18953;45.930;13.640;2022-11-20T09:53:11;3;2;
32503;PMS5003;18953;45.930;13.640;2022-11-20T09:58:28;4;3;
32503;PMS5003;18953;45.930;13.640;2022-11-20T10:03:45;3;3;
32503;PMS5003;18953;45.930;13.640;2022-11-20T10:09:01;2;2;
32503;PMS5003;18953;45.930;13.640;2022-11-20T10:14:16;2;2;
32503;PMS5003;18953;45.930;13.640;2022-11-20T10:19:36;4;3;
32503;PMS5003;18953;45.930;13.640;2022-11-20T10:24:49;3;2;
32503;PMS5003;18953;45.930;13.640;2022-11-20T10:30:07;1;1;
32503;PMS5003;18953;45.930;13.640;2022-11-20T10:35:21;0;0;
32503;PMS5003;18953;45.930;13.640;2022-11-20T10:40:38;0;0;
32503;PMS5003;18953;45.930;13.640;2022-11-20T10:45:55;1;0;
32503;PMS5003;18953;45.930;13.640;2022-11-20T10:51:13;0;0;
32503;PMS5003;18953;45.930;13.640;2022-11-20T10:56:29;0;0;
32503;PMS5003;18953;45.930;13.640;2022-11-20T11:01:42;0;0;
32503;PMS5003;18953;45.930;13.640;2022-11-20T11:07:02;1;1;
32503;PMS5003;18953;45.930;13.640;2022-11-20T11:12:15;0;0;
32503;PMS5003;18953;45.930;13.640;2022-11-20T11:17:32;1;1;
32503;PMS5003;18953;45.930;13.640;2022-11-20T11:22:49;0;0;
32503;PMS5003;18953;45.930;13.640;2022-11-20T11:28:17;1;1;
32503;PMS5003;18953;45.930;13.640;2022-11-20T11:33:22;1;0;
32503;PMS5003;18953;45.930;13.640;2022-11-20T11:38:39;0;0;
32503;PMS5003;18953;45.930;13.640;2022-11-20T11:43:54;1;1;
32503;PMS5003;18953;45.930;13.640;2022-11-20T11:49:14;1;1;
32503;PMS5003;18953;45.930;13.640;2022-11-20T11:54:29;1;1;
32503;PMS5003;18953;45.930;13.640;2022-11-20T11:59:47;0;0;
32503;PMS5003;18953;45.930;13.640;2022-11-20T12:05:00;0;0;
32503;PMS5003;18953;45.930;13.640;2022-11-20T12:10:19;0;0;
32503;PMS5003;18953;45.930;13.640;2022-11-20T12:15:33;1;1;
32503;PMS5003;18953;45.930;13.640;2022-11-20T12:20:53;1;1;
32503;PMS5003;18953;45.930;13.640;2022-11-20T12:26:07;0;0;
32503;PMS5003;18953;45.930;13.640;2022-11-20T12:31:29;1;1;
32503;PMS5003;18953;45.930;13.640;2022-11-20T12:36:40;3;1;
32503;PMS5003;18953;45.930;13.640;2022-11-20T12:42:00;1;1;
32503;PMS5003;18953;45.930;13.640;2022-11-20T12:47:14;2;1;
32503;PMS5003;18953;45.930;13.640;2022-11-20T12:52:33;2;2;
32503;PMS5003;18953;45.930;13.640;2022-11-20T12:57:46;2;2;
32503;PMS5003;18953;45.930;13.640;2022-11-20T13:03:06;1;1;
32503;PMS5003;18953;45.930;13.640;2022-11-20T13:08:19;0;0;
32503;PMS5003;18953;45.930;13.640;2022-11-20T13:13:36;1;0;
32503;PMS5003;18953;45.930;13.640;2022-11-20T13:18:51;0;0;
32503;PMS5003;18953;45.930;13.640;2022-11-20T13:24:19;0;0;
32503;PMS5003;18953;45.930;13.640;2022-11-20T13:29:24;0;0;
32503;PMS5003;18953;45.930;13.640;2022-11-20T13:34:50;2;1;
32503;PMS5003;18953;45.930;13.640;2022-11-20T13:40:11;2;2;
32503;PMS5003;18953;45.930;13.640;2022-11-20T13:45:21;3;3;
32503;PMS5003;18953;45.930;13.640;2022-11-20T13:50:46;3;3;
32503;PMS5003;18953;45.930;13.640;2022-11-20T13:55:47;3;2;
32503;PMS5003;18953;45.930;13.640;2022-11-20T14:01:08;2;2;
32503;PMS5003;18953;45.930;13.640;2022-11-20T14:06:23;3;3;
32503;PMS5003;18953;45.930;13.640;2022-11-20T14:11:36;2;2;
32503;PMS5003;18953;45.930;13.640;2022-11-20T14:16:53;4;4;
32503;PMS5003;18953;45.930;13.640;2022-11-20T14:22:10;3;3;
32503;PMS5003;18953;45.930;13.640;2022-11-20T14:27:25;2;2;
32503;PMS5003;18953;45.930;13.640;2022-11-20T14:32:41;3;2;
32503;PMS5003;18953;45.930;13.640;2022-11-20T14:37:58;2;2;
32503;PMS5003;18953;45.930;13.640;2022-11-20T14:43:17;2;2;
32503;PMS5003;18953;45.930;13.640;2022-11-20T14:48:31;2;2;
32503;PMS5003;18953;45.930;13.640;2022-11-20T14:53:47;2;2;
32503;PMS5003;18953;45.930;13.640;2022-11-20T14:59:04;2;2;
32503;PMS5003;18953;45.930;13.640;2022-11-20T15:04:20;3;3;
32503;PMS5003;18953;45.930;13.640;2022-11-20T15:09:36;5;4;
32503;PMS5003;18953;45.930;13.640;2022-11-20T15:14:53;5;5;
32503;PMS5003;18953;45.930;13.640;2022-11-20T15:20:10;6;5;
32503;PMS5003;18953;45.930;13.640;2022-11-20T15:25:26;4;4;
32503;PMS5003;18953;45.930;13.640;2022-11-20T15:30:43;7;7;
32503;PMS5003;18953;45.930;13.640;2022-11-20T15:35:59;7;5;
32503;PMS5003;18953;45.930;13.640;2022-11-20T15:41:16;7;6;
32503;PMS5003;18953;45.930;13.640;2022-11-20T15:46:33;9;6;
32503;PMS5003;18953;45.930;13.640;2022-11-20T15:51:49;12;11;
32503;PMS5003;18953;45.930;13.640;2022-11-20T15:57:05;12;12;
32503;PMS5003;18953;45.930;13.640;2022-11-20T16:02:26;22;18;
32503;PMS5003;18953;45.930;13.640;2022-11-20T16:07:48;23;21;
32503;PMS5003;18953;45.930;13.640;2022-11-20T16:13:05;18;17;
32503;PMS5003;18953;45.930;13.640;2022-11-20T16:18:21;14;13;
32503;PMS5003;18953;45.930;13.640;2022-11-20T16:23:38;15;13;
32503;PMS5003;18953;45.930;13.640;2022-11-20T16:28:54;18;15;
32503;PMS5003;18953;45.930;13.640;2022-11-20T16:34:11;12;11;
32503;PMS5003;18953;45.930;13.640;2022-11-20T16:39:27;11;9;
32503;PMS5003;18953;45.930;13.640;2022-11-20T16:44:44;7;7;
32503;PMS5003;18953;45.930;13.640;2022-11-20T16:50:04;6;6;
32503;PMS5003;18953;45.930;13.640;2022-11-20T16:55:20;8;7;
32503;PMS5003;18953;45.930;13.640;2022-11-20T17:00:36;9;8;
32503;PMS5003;18953;45.930;13.640;2022-11-20T17:05:53;10;9;
32503;PMS5003;18953;45.930;13.640;2022-11-20T17:11:10;16;15;
32503;PMS5003;18953;45.930;13.640;2022-11-20T17:16:26;17;16;
32503;PMS5003;18953;45.930;13.640;2022-11-20T17:21:42;15;14;
32503;PMS5003;18953;45.930;13.640;2022-11-20T17:26:58;15;14;
32503;PMS5003;18953;45.930;13.640;2022-11-20T17:32:15;19;19;
32503;PMS5003;18953;45.930;13.640;2022-11-20T17:37:31;23;23;
32503;PMS5003;18953;45.930;13.640;2022-11-20T17:42:48;27;25;
32503;PMS5003;18953;45.930;13.640;2022-11-20T17:48:04;32;30;
32503;PMS5003;18953;45.930;13.640;2022-11-20T17:53:21;39;33;
32503;PMS5003;18953;45.930;13.640;2022-11-20T17:58:38;33;31;
32503;PMS5003;18953;45.930;13.640;2022-11-20T18:03:54;32;30;
32503;PMS5003;18953;45.930;13.640;2022-11-20T18:09:10;36;33;
32503;PMS5003;18953;45.930;13.640;2022-11-20T18:14:27;30;29;
32503;PMS5003;18953;45.930;13.640;2022-11-20T18:19:44;31;28;
32503;PMS5003;18953;45.930;13.640;2022-11-20T18:25:01;29;27;
32503;PMS5003;18953;45.930;13.640;2022-11-20T18:30:18;35;31;
32503;PMS5003;18953;45.930;13.640;2022-11-20T18:35:35;33;31;
32503;PMS5003;18953;45.930;13.640;2022-11-20T18:40:52;26;24;
32503;PMS5003;18953;45.930;13.640;2022-11-20T18:46:08;25;22;
32503;PMS5003;18953;45.930;13.640;2022-11-20T18:51:25;20;18;
32503;PMS5003;18953;45.930;13.640;2022-11-20T18:56:41;24;22;
32503;PMS5003;18953;45.930;13.640;2022-11-20T19:01:58;29;27;
32503;PMS5003;18953;45.930;13.640;2022-11-20T19:07:14;30;26;
32503;PMS5003;18953;45.930;13.640;2022-11-20T19:12:31;25;22;
32503;PMS5003;18953;45.930;13.640;2022-11-20T19:17:47;26;25;
32503;PMS5003;18953;45.930;13.640;2022-11-20T19:23:04;37;34;
32503;PMS5003;18953;45.930;13.640;2022-11-20T19:28:21;42;35;
32503;PMS5003;18953;45.930;13.640;2022-11-20T19:33:38;45;38;
32503;PMS5003;18953;45.930;13.640;2022-11-20T19:38:55;42;38;
32503;PMS5003;18953;45.930;13.640;2022-11-20T19:44:12;35;32;
32503;PMS5003;18953;45.930;13.640;2022-11-20T19:49:28;27;24;
32503;PMS5003;18953;45.930;13.640;2022-11-20T19:54:45;18;16;
32503;PMS5003;18953;45.930;13.640;2022-11-20T20:00:02;13;13;
32503;PMS5003;18953;45.930;13.640;2022-11-20T20:05:18;13;10;
32503;PMS5003;18953;45.930;13.640;2022-11-20T20:10:35;9;8;
32503;PMS5003;18953;45.930;13.640;2022-11-20T20:15:51;7;7;
32503;PMS5003;18953;45.930;13.640;2022-11-20T20:21:08;6;5;
32503;PMS5003;18953;45.930;13.640;2022-11-20T20:26:25;5;4;
32503;PMS5003;18953;45.930;13.640;2022-11-20T20:31:41;7;6;
32503;PMS5003;18953;45.930;13.640;2022-11-20T20:36:57;4;4;
32503;PMS5003;18953;45.930;13.640;2022-11-20T20:42:13;7;7;
32503;PMS5003;18953;45.930;13.640;2022-11-20T20:47:30;7;7;
32503;PMS5003;18953;45.930;13.640;2022-11-20T20:52:46;7;5;
32503;PMS5003;18953;45.930;13.640;2022-11-20T20:58:04;5;5;
32503;PMS5003;18953;45.930;13.640;2022-11-20T21:03:20;9;8;
32503;PMS5003;18953;45.930;13.640;2022-11-20T21:08:37;8;7;
32503;PMS5003;18953;45.930;13.640;2022-11-20T21:13:53;8;7;
32503;PMS5003;18953;45.930;13.640;2022-11-20T21:19:09;5;4;
32503;PMS5003;18953;45.930;13.640;2022-11-20T21:24:26;10;10;
32503;PMS5003;18953;45.930;13.640;2022-11-20T21:29:42;10;10;
32503;PMS5003;18953;45.930;13.640;2022-11-20T21:34:59;16;14;
32503;PMS5003;18953;45.930;13.640;2022-11-20T21:40:15;14;14;
32503;PMS5003;18953;45.930;13.640;2022-11-20T21:45:32;17;17;
32503;PMS5003;18953;45.930;13.640;2022-11-20T21:50:48;15;15;
32503;PMS5003;18953;45.930;13.640;2022-11-20T21:56:05;16;14;
32503;PMS5003;18953;45.930;13.640;2022-11-20T22:01:22;16;16;
32503;PMS5003;18953;45.930;13.640;2022-11-20T22:06:37;14;14;
32503;PMS5003;18953;45.930;13.640;2022-11-20T22:11:54;14;14;
32503;PMS5003;18953;45.930;13.640;2022-11-20T22:17:11;10;10;
32503;PMS5003;18953;45.930;13.640;2022-11-20T22:22:27;13;13;
32503;PMS5003;18953;45.930;13.640;2022-11-20T22:27:44;14;14;
32503;PMS5003;18953;45.930;13.640;2022-11-20T22:33:01;16;15;
32503;PMS5003;18953;45.930;13.640;2022-11-20T22:38:18;21;18;
32503;PMS5003;18953;45.930;13.640;2022-11-20T22:43:35;14;12;
32503;PMS5003;18953;45.930;13.640;2022-11-20T22:48:51;10;10;
32503;PMS5003;18953;45.930;13.640;2022-11-20T22:54:09;13;10;
32503;PMS5003;18953;45.930;13.640;2022-11-20T22:59:24;9;9;
32503;PMS5003;18953;45.930;13.640;2022-11-20T23:04:40;8;8;
32503;PMS5003;18953;45.930;13.640;2022-11-20T23:09:57;9;8;
32503;PMS5003;18953;45.930;13.640;2022-11-20T23:15:14;9;8;
32503;PMS5003;18953;45.930;13.640;2022-11-20T23:20:30;11;9;
32503;PMS5003;18953;45.930;13.640;2022-11-20T23:25:47;11;7;
32503;PMS5003;18953;45.930;13.640;2022-11-20T23:31:04;7;6;
32503;PMS5003;18953;45.930;13.640;2022-11-20T23:36:20;8;8;
32503;PMS5003;18953;45.930;13.640;2022-11-20T23:41:36;7;7;
32503;PMS5003;18953;45.930;13.640;2022-11-20T23:46:53;7;6;
32503;PMS5003;18953;45.930;13.640;2022-11-20T23:52:09;8;6;
32503;PMS5003;18953;45.930;13.640;2022-11-20T23:57:26;6;5;
